createdAt,value
2023-06-23T00:01:25.400Z,76.44
2023-06-23T00:03:56.088Z,76.62
2023-06-23T00:06:23.983Z,76.65
2023-06-23T00:08:52.308Z,76.65
2023-06-23T00:11:20.469Z,76.58
2023-06-23T00:13:48.430Z,76.77
2023-06-23T00:16:16.209Z,77.05
2023-06-23T00:18:44.059Z,77.23
2023-06-23T00:21:12.121Z,77.16
2023-06-23T00:23:40.631Z,77.55
2023-06-23T00:26:09.263Z,77.60
2023-06-23T00:28:38.172Z,77.61
2023-06-23T00:31:06.140Z,77.61
2023-06-23T00:33:34.288Z,77.71
2023-06-23T00:36:02.131Z,77.82
2023-06-23T00:38:34.987Z,77.95
2023-06-23T00:41:03.722Z,77.85
2023-06-23T00:43:32.273Z,77.86
2023-06-23T00:46:18.288Z,77.81
2023-06-23T00:48:52.141Z,77.69
2023-06-23T00:51:23.824Z,77.72
2023-06-23T00:53:55.045Z,77.71
2023-06-23T00:56:22.946Z,77.61
2023-06-23T00:58:51.971Z,77.79
2023-06-23T01:01:22.998Z,78.09
2023-06-23T01:03:50.972Z,78.13
2023-06-23T01:06:31.632Z,78.27
2023-06-23T01:09:13.477Z,78.35
2023-06-23T01:11:56.972Z,78.45
2023-06-23T01:15:18.590Z,78.37
2023-06-23T01:17:58.798Z,78.35
2023-06-23T01:20:31.721Z,78.45
2023-06-23T01:23:46.879Z,78.50
2023-06-23T01:26:27.211Z,78.66
2023-06-23T01:29:02.449Z,78.84
2023-06-23T01:31:48.346Z,78.94
2023-06-23T01:34:22.403Z,78.99
2023-06-23T01:37:13.004Z,79.04
2023-06-23T01:39:51.558Z,79.19
2023-06-23T01:42:24.505Z,79.46
2023-06-23T01:44:56.405Z,79.37
2023-06-23T01:47:33.302Z,79.51
2023-06-23T01:50:03.981Z,79.32
2023-06-23T01:52:36.797Z,79.22
2023-06-23T01:55:07.442Z,79.45
2023-06-23T01:57:39.072Z,79.33
2023-06-23T02:00:12.843Z,79.57
2023-06-23T02:02:50.388Z,79.67
2023-06-23T02:05:23.243Z,79.62
2023-06-23T02:07:53.892Z,79.62
2023-06-23T02:10:25.732Z,79.74
2023-06-23T02:12:56.101Z,79.67
2023-06-23T02:15:25.020Z,79.43
2023-06-23T02:17:55.975Z,79.40
2023-06-23T02:20:25.608Z,79.38
2023-06-23T02:22:54.693Z,79.48
2023-06-23T02:25:23.763Z,79.58
2023-06-23T02:27:52.520Z,79.59
2023-06-23T02:30:21.139Z,79.66
2023-06-23T02:32:49.457Z,79.36
2023-06-23T02:35:18.633Z,79.41
2023-06-23T02:37:53.559Z,79.53
2023-06-23T02:40:25.972Z,79.56
2023-06-23T02:43:29.548Z,79.71
2023-06-23T02:46:01.939Z,79.67
2023-06-23T02:48:40.513Z,79.61
2023-06-23T02:51:14.694Z,79.37
2023-06-23T02:53:50.073Z,79.51
2023-06-23T02:56:27.228Z,79.61
2023-06-23T02:59:03.894Z,79.81
2023-06-23T03:01:40.332Z,79.73
2023-06-23T03:04:08.264Z,79.74
2023-06-23T03:06:36.927Z,79.80
2023-06-23T03:09:05.006Z,79.82
2023-06-23T03:11:34.889Z,79.95
2023-06-23T03:14:04.082Z,80.03
2023-06-23T03:16:55.207Z,80.06
2023-06-23T03:19:48.171Z,80.06
2023-06-23T03:22:29.666Z,80.08
2023-06-23T03:25:04.495Z,80.00
2023-06-23T03:27:38.474Z,80.04
2023-06-23T03:30:27.699Z,80.16
2023-06-23T03:33:03.281Z,80.21
2023-06-23T03:35:40.987Z,80.22
2023-06-23T03:38:15.770Z,80.10
2023-06-23T03:40:55.847Z,80.08
2023-06-23T03:43:39.219Z,80.11
2023-06-23T03:46:16.416Z,80.31
2023-06-23T03:48:46.689Z,80.47
2023-06-23T03:51:20.562Z,80.60
2023-06-23T03:53:51.723Z,80.43
2023-06-23T03:56:20.644Z,80.49
2023-06-23T03:58:51.808Z,80.16
2023-06-23T04:01:23.955Z,80.10
2023-06-23T04:03:55.442Z,80.28
2023-06-23T04:06:27.047Z,80.37
2023-06-23T04:08:58.780Z,80.38
2023-06-23T04:11:29.678Z,80.31
2023-06-23T04:13:59.085Z,79.96
2023-06-23T04:16:28.532Z,80.07
2023-06-23T04:19:00.808Z,80.31
2023-06-23T04:21:31.202Z,80.35
2023-06-23T04:24:04.513Z,80.22
2023-06-23T04:26:36.855Z,80.11
2023-06-23T04:29:08.568Z,79.94
2023-06-23T04:31:39.173Z,79.56
2023-06-23T04:34:07.088Z,79.60
2023-06-23T04:36:49.154Z,79.87
2023-06-23T04:39:29.276Z,80.11
2023-06-23T04:42:05.058Z,80.09
2023-06-23T04:44:44.216Z,79.95
2023-06-23T04:47:13.604Z,79.72
2023-06-23T04:49:46.687Z,79.39
2023-06-23T04:52:17.839Z,78.95
2023-06-23T04:54:49.102Z,79.00
2023-06-23T04:57:22.895Z,78.56
2023-06-23T04:59:56.650Z,78.47
2023-06-23T05:02:27.067Z,78.36
2023-06-23T05:04:57.917Z,78.40
2023-06-23T05:07:28.317Z,78.43
2023-06-23T05:09:59.993Z,78.38
2023-06-23T05:12:29.938Z,78.47
2023-06-23T05:15:00.613Z,78.14
2023-06-23T05:17:31.142Z,77.75
2023-06-23T05:20:02.188Z,77.96
2023-06-23T05:22:32.789Z,78.45
2023-06-23T05:25:05.633Z,78.43
2023-06-23T05:27:38.336Z,78.55
2023-06-23T05:30:10.004Z,78.54
2023-06-23T05:32:41.822Z,78.39
2023-06-23T05:35:12.188Z,78.17
2023-06-23T05:37:43.425Z,77.86
2023-06-23T05:40:15.424Z,77.75
2023-06-23T05:42:44.276Z,77.86
2023-06-23T05:45:13.651Z,78.06
2023-06-23T05:48:03.170Z,78.02
2023-06-23T05:50:38.602Z,78.03
2023-06-23T05:53:13.121Z,77.73
2023-06-23T05:55:52.582Z,77.65
2023-06-23T05:58:30.108Z,77.75
2023-06-23T06:01:03.960Z,77.58
2023-06-23T06:03:40.817Z,77.49
2023-06-23T06:06:09.496Z,77.51
2023-06-23T06:08:40.521Z,77.76
2023-06-23T06:11:11.673Z,77.73
2023-06-23T06:13:44.571Z,77.73
2023-06-23T06:16:14.189Z,77.44
2023-06-23T06:18:44.430Z,77.47
2023-06-23T06:21:16.430Z,77.47
2023-06-23T06:23:48.070Z,77.16
2023-06-23T06:26:19.801Z,77.09
2023-06-23T06:28:52.753Z,76.96
2023-06-23T06:31:22.679Z,77.00
2023-06-23T06:33:54.242Z,76.84
2023-06-23T06:36:24.927Z,76.64
2023-06-23T06:38:54.151Z,76.50
2023-06-23T06:41:24.128Z,76.27
2023-06-23T06:43:51.999Z,76.04
2023-06-23T06:46:21.155Z,75.79
2023-06-23T06:48:51.222Z,75.64
2023-06-23T06:51:19.949Z,75.43
2023-06-23T06:53:48.114Z,75.29
2023-06-23T06:56:17.344Z,75.26
2023-06-23T06:58:45.304Z,74.99
2023-06-23T07:01:14.222Z,74.61
2023-06-23T07:03:44.136Z,74.32
2023-06-23T07:06:15.126Z,74.10
2023-06-23T07:08:44.115Z,72.86
2023-06-23T07:11:14.278Z,72.53
2023-06-23T07:13:42.306Z,72.17
2023-06-23T07:16:10.273Z,71.54
2023-06-23T07:18:38.149Z,71.68
2023-06-23T07:21:06.035Z,71.30
2023-06-23T07:23:33.876Z,71.39
2023-06-23T07:26:02.012Z,70.09
2023-06-23T07:28:29.864Z,69.96
2023-06-23T07:30:57.757Z,69.62
2023-06-23T07:33:25.622Z,69.90
2023-06-23T07:35:53.852Z,70.29
2023-06-23T07:38:21.657Z,70.44
2023-06-23T07:40:49.505Z,70.58
2023-06-23T07:43:17.231Z,70.06
2023-06-23T07:45:45.406Z,69.79
2023-06-23T07:48:13.235Z,69.49
2023-06-23T07:50:41.094Z,69.47
2023-06-23T07:53:09.660Z,68.61
2023-06-23T07:55:37.415Z,68.52
2023-06-23T07:58:05.216Z,67.76
2023-06-23T08:00:33.424Z,66.82
2023-06-23T08:03:01.473Z,65.99
2023-06-23T08:05:29.681Z,66.17
2023-06-23T08:07:57.413Z,66.24
2023-06-23T08:10:25.206Z,65.28
2023-06-23T08:12:52.965Z,65.39
2023-06-23T08:15:20.785Z,64.87
2023-06-23T08:17:51.561Z,64.48
2023-06-23T08:20:19.640Z,63.80
2023-06-23T08:22:47.970Z,63.61
2023-06-23T08:25:16.000Z,63.56
2023-06-23T08:27:43.819Z,63.57
2023-06-23T08:30:12.495Z,63.58
2023-06-23T08:32:40.557Z,63.78
2023-06-23T08:35:10.620Z,63.91
2023-06-23T08:37:40.732Z,63.55
2023-06-23T08:40:09.758Z,62.73
2023-06-23T08:42:38.169Z,62.36
2023-06-23T08:45:09.044Z,62.19
2023-06-23T08:47:42.348Z,62.04
2023-06-23T08:50:10.550Z,62.32
2023-06-23T08:52:41.644Z,62.31
2023-06-23T08:55:12.162Z,62.17
2023-06-23T08:57:40.278Z,61.80
2023-06-23T09:00:09.071Z,62.21
2023-06-23T09:02:37.170Z,61.87
2023-06-23T09:05:05.535Z,61.58
2023-06-23T09:07:33.318Z,61.78
2023-06-23T09:10:01.481Z,61.23
2023-06-23T09:12:29.280Z,61.72
2023-06-23T09:14:59.720Z,61.83
2023-06-23T09:17:28.449Z,61.42
2023-06-23T09:19:58.022Z,61.13
2023-06-23T09:22:27.158Z,61.40
2023-06-23T09:24:55.011Z,61.00
2023-06-23T09:27:43.539Z,60.90
2023-06-23T09:30:11.974Z,60.98
2023-06-23T09:32:45.710Z,60.76
2023-06-23T09:35:19.559Z,60.56
2023-06-23T09:37:49.063Z,60.12
2023-06-23T09:40:24.717Z,60.34
2023-06-23T09:42:58.618Z,60.46
2023-06-23T09:45:26.806Z,60.19
2023-06-23T09:47:54.729Z,60.12
2023-06-23T09:50:26.865Z,59.98
2023-06-23T09:53:05.503Z,59.82
2023-06-23T09:55:33.385Z,60.22
2023-06-23T09:58:11.756Z,59.64
2023-06-23T10:00:41.017Z,59.60
2023-06-23T10:03:09.274Z,59.18
2023-06-23T10:05:39.619Z,57.99
2023-06-23T10:08:13.038Z,57.37
2023-06-23T10:10:45.637Z,57.59
2023-06-23T10:13:13.693Z,57.83
2023-06-23T10:15:45.412Z,57.31
2023-06-23T10:18:14.839Z,57.29
2023-06-23T10:20:42.850Z,57.40
2023-06-23T10:23:13.718Z,57.11
2023-06-23T10:25:43.205Z,56.89
2023-06-23T10:28:16.108Z,57.63
2023-06-23T10:30:44.843Z,57.72
2023-06-23T10:33:22.557Z,56.88
2023-06-23T10:35:54.092Z,56.88
2023-06-23T10:38:27.536Z,56.86
2023-06-23T10:40:59.965Z,56.83
2023-06-23T10:43:34.821Z,57.07
2023-06-23T10:46:04.437Z,57.01
2023-06-23T10:48:33.246Z,55.90
2023-06-23T10:51:02.925Z,56.28
2023-06-23T10:53:35.143Z,55.96
2023-06-23T10:56:09.959Z,56.23
2023-06-23T10:58:51.484Z,55.39
2023-06-23T11:01:19.500Z,55.86
2023-06-23T11:03:55.397Z,55.72
2023-06-23T11:06:36.914Z,54.79
2023-06-23T11:09:46.261Z,54.17
2023-06-23T11:12:39.861Z,54.82
2023-06-23T11:15:22.011Z,54.79
2023-06-23T11:18:03.796Z,53.82
2023-06-23T11:20:41.502Z,54.22
2023-06-23T11:23:13.862Z,54.47
2023-06-23T11:25:48.653Z,53.97
2023-06-23T11:28:39.704Z,53.59
2023-06-23T11:31:19.386Z,54.13
2023-06-23T11:34:02.091Z,54.19
2023-06-23T11:36:32.897Z,49.59
2023-06-23T11:39:01.901Z,50.71
2023-06-23T11:41:34.805Z,51.61
2023-06-23T11:44:04.491Z,50.28
2023-06-23T11:46:34.243Z,48.14
2023-06-23T11:49:11.235Z,48.53
2023-06-23T11:51:40.154Z,48.30
2023-06-23T11:54:08.736Z,48.39
2023-06-23T11:56:40.490Z,48.74
2023-06-23T11:59:12.114Z,49.40
2023-06-23T12:01:40.028Z,49.37
2023-06-23T12:04:08.108Z,50.46
2023-06-23T12:06:39.044Z,49.42
2023-06-23T12:09:07.646Z,48.15
2023-06-23T12:11:38.880Z,48.76
2023-06-23T12:14:06.705Z,48.21
2023-06-23T12:16:38.853Z,48.77
2023-06-23T12:19:07.900Z,47.87
2023-06-23T12:21:40.978Z,47.23
2023-06-23T12:24:11.748Z,45.93
2023-06-23T12:26:42.921Z,44.75
2023-06-23T12:29:12.500Z,45.32
2023-06-23T12:31:41.136Z,45.48
2023-06-23T12:34:11.239Z,44.78
2023-06-23T12:36:41.097Z,44.61
2023-06-23T12:39:13.825Z,43.40
2023-06-23T12:41:42.020Z,42.17
2023-06-23T12:44:13.139Z,42.31
2023-06-23T12:46:42.369Z,41.23
2023-06-23T12:49:11.570Z,41.90
2023-06-23T12:51:39.978Z,41.39
2023-06-23T12:54:07.771Z,41.93
2023-06-23T12:56:35.622Z,42.85
2023-06-23T12:59:04.111Z,42.93
2023-06-23T13:01:32.577Z,42.70
2023-06-23T13:04:00.639Z,41.80
2023-06-23T13:06:29.334Z,42.40
2023-06-23T13:08:57.337Z,41.80
2023-06-23T13:11:25.199Z,41.53
2023-06-23T13:13:55.526Z,41.91
2023-06-23T13:16:23.351Z,41.94
2023-06-23T13:18:51.060Z,40.24
2023-06-23T13:21:18.826Z,40.96
2023-06-23T13:23:47.135Z,40.12
2023-06-23T13:26:14.977Z,40.01
2023-06-23T13:28:42.766Z,40.11
2023-06-23T13:31:10.800Z,39.72
2023-06-23T13:33:39.304Z,39.19
2023-06-23T13:36:07.498Z,39.26
2023-06-23T13:38:36.939Z,39.27
2023-06-23T13:41:04.803Z,39.00
2023-06-23T13:43:32.584Z,38.89
2023-06-23T13:46:00.474Z,39.66
2023-06-23T13:48:28.307Z,39.43
2023-06-23T13:50:56.077Z,40.09
2023-06-23T13:53:25.281Z,39.97
2023-06-23T13:55:54.092Z,39.80
2023-06-23T13:58:22.529Z,40.33
2023-06-23T14:00:54.179Z,39.76
2023-06-23T14:03:22.364Z,40.59
2023-06-23T14:05:53.483Z,39.88
2023-06-23T14:08:21.862Z,39.50
2023-06-23T14:10:49.814Z,39.92
2023-06-23T14:13:18.075Z,38.61
2023-06-23T14:15:46.083Z,39.47
2023-06-23T14:18:14.358Z,39.09
2023-06-23T14:20:45.600Z,39.18
2023-06-23T14:23:14.458Z,38.85
2023-06-23T14:25:42.287Z,38.61
2023-06-23T14:28:10.254Z,38.62
2023-06-23T14:30:38.224Z,37.81
2023-06-23T14:33:07.631Z,37.67
2023-06-23T14:35:36.265Z,38.46
2023-06-23T14:38:06.695Z,37.98
2023-06-23T14:40:34.828Z,36.95
2023-06-23T14:43:04.549Z,37.22
2023-06-23T14:45:38.494Z,37.29
2023-06-23T14:48:07.802Z,36.91
2023-06-23T14:50:35.808Z,36.72
2023-06-23T14:53:03.747Z,36.77
2023-06-23T14:55:34.216Z,37.66
2023-06-23T14:58:07.125Z,37.73
2023-06-23T15:00:35.696Z,37.78
2023-06-23T15:03:04.225Z,38.40
2023-06-23T15:05:35.523Z,39.11
2023-06-23T15:08:04.474Z,39.40
2023-06-23T15:10:34.576Z,39.93
2023-06-23T15:13:02.591Z,40.14
2023-06-23T15:15:30.719Z,40.54
2023-06-23T15:17:59.179Z,39.79
2023-06-23T15:20:27.544Z,40.76
2023-06-23T15:22:55.588Z,40.48
2023-06-23T15:25:23.556Z,39.93
2023-06-23T15:27:51.352Z,39.38
2023-06-23T15:30:19.435Z,40.23
2023-06-23T15:32:47.624Z,39.62
2023-06-23T15:35:15.637Z,39.98
2023-06-23T15:37:43.590Z,39.72
2023-06-23T15:40:13.216Z,39.99
2023-06-23T15:42:41.371Z,40.17
2023-06-23T15:45:09.962Z,39.49
2023-06-23T15:47:37.958Z,39.34
2023-06-23T15:50:06.510Z,39.50
2023-06-23T15:52:34.291Z,38.72
2023-06-23T15:55:02.195Z,39.03
2023-06-23T15:57:30.113Z,39.02
2023-06-23T15:59:57.993Z,39.09
2023-06-23T16:02:26.823Z,39.35
2023-06-23T16:04:55.210Z,39.11
2023-06-23T16:07:23.385Z,39.86
2023-06-23T16:09:51.224Z,40.09
2023-06-23T16:12:19.024Z,40.25
2023-06-23T16:14:46.818Z,39.66
2023-06-23T16:17:14.739Z,38.87
2023-06-23T16:19:42.671Z,39.63
2023-06-23T16:22:10.432Z,39.38
2023-06-23T16:24:38.278Z,38.81
2023-06-23T16:27:06.669Z,38.68
2023-06-23T16:29:35.468Z,38.44
2023-06-23T16:32:03.853Z,38.90
2023-06-23T16:34:31.668Z,39.75
2023-06-23T16:36:59.541Z,40.18
2023-06-23T16:39:27.379Z,40.14
2023-06-23T16:41:57.646Z,40.14
2023-06-23T16:44:25.918Z,39.99
2023-06-23T16:46:53.888Z,40.09
2023-06-23T16:49:22.072Z,40.50
2023-06-23T16:51:49.899Z,40.35
2023-06-23T16:54:17.659Z,40.14
2023-06-23T16:56:45.444Z,40.20
2023-06-23T16:59:13.264Z,40.16
2023-06-23T17:01:41.284Z,40.17
2023-06-23T17:04:15.132Z,40.38
2023-06-23T17:06:43.998Z,40.63
2023-06-23T17:09:12.860Z,40.37
2023-06-23T17:11:40.759Z,40.67
2023-06-23T17:14:09.753Z,40.26
2023-06-23T17:16:37.631Z,40.68
2023-06-23T17:19:05.398Z,40.09
2023-06-23T17:21:33.191Z,40.14
2023-06-23T17:24:01.022Z,40.00
2023-06-23T17:26:30.303Z,40.26
2023-06-23T17:28:58.680Z,41.17
2023-06-23T17:31:26.585Z,41.34
2023-06-23T17:33:54.653Z,41.70
2023-06-23T17:36:22.494Z,42.09
2023-06-23T17:38:50.569Z,41.97
2023-06-23T17:41:18.617Z,42.79
2023-06-23T17:43:46.405Z,42.84
2023-06-23T17:46:15.422Z,41.93
2023-06-23T17:48:44.689Z,42.64
2023-06-23T17:51:12.970Z,43.01
2023-06-23T17:53:41.940Z,43.77
2023-06-23T17:56:09.712Z,43.75
2023-06-23T17:58:37.588Z,44.33
2023-06-23T18:01:05.559Z,43.89
2023-06-23T18:03:35.990Z,44.46
2023-06-23T18:06:04.177Z,44.71
2023-06-23T18:08:32.016Z,45.15
2023-06-23T18:10:59.842Z,44.94
2023-06-23T18:13:27.672Z,45.25
2023-06-23T18:15:55.841Z,45.67
2023-06-23T18:18:24.948Z,45.49
2023-06-23T18:20:52.835Z,46.09
2023-06-23T18:23:20.661Z,46.35
2023-06-23T18:25:48.536Z,46.50
2023-06-23T18:28:16.431Z,46.71
2023-06-23T18:30:44.447Z,46.36
2023-06-23T18:33:12.323Z,46.69
2023-06-23T18:35:40.084Z,47.09
2023-06-23T18:38:08.006Z,47.38
2023-06-23T18:40:36.641Z,47.64
2023-06-23T18:43:04.550Z,47.58
2023-06-23T18:45:33.666Z,47.36
2023-06-23T18:48:01.583Z,47.32
2023-06-23T18:50:29.381Z,47.28
2023-06-23T18:52:57.353Z,47.20
2023-06-23T18:55:25.149Z,47.26
2023-06-23T18:57:53.160Z,47.67
2023-06-23T19:00:21.171Z,48.05
2023-06-23T19:02:49.288Z,48.05
2023-06-23T19:05:17.613Z,48.01
2023-06-23T19:07:47.457Z,48.59
2023-06-23T19:10:15.696Z,48.75
2023-06-23T19:12:43.500Z,49.07
2023-06-23T19:15:11.448Z,49.29
2023-06-23T19:17:39.290Z,49.64
2023-06-23T19:20:10.756Z,50.22
2023-06-23T19:22:38.776Z,50.49
2023-06-23T19:25:07.438Z,50.57
2023-06-23T19:27:35.276Z,50.98
2023-06-23T19:30:03.175Z,51.32
2023-06-23T19:32:31.048Z,51.77
2023-06-23T19:34:59.004Z,52.02
2023-06-23T19:37:26.877Z,52.34
2023-06-23T19:39:59.934Z,52.62
2023-06-23T19:42:28.948Z,52.94
2023-06-23T19:44:57.309Z,53.38
2023-06-23T19:47:25.217Z,53.96
2023-06-23T19:49:53.023Z,54.56
2023-06-23T19:52:21.004Z,54.71
2023-06-23T19:54:48.890Z,55.16
2023-06-23T19:57:16.696Z,55.59
2023-06-23T19:59:48.156Z,56.11
2023-06-23T20:02:17.277Z,56.16
2023-06-23T20:04:45.054Z,56.40
2023-06-23T20:07:12.955Z,56.61
2023-06-23T20:09:40.857Z,56.88
2023-06-23T20:12:08.906Z,57.46
2023-06-23T20:14:36.703Z,57.49
2023-06-23T20:17:05.256Z,58.09
2023-06-23T20:19:33.139Z,58.71
2023-06-23T20:22:00.894Z,59.22
2023-06-23T20:24:28.723Z,59.57
2023-06-23T20:26:56.581Z,59.92
2023-06-23T20:29:25.419Z,60.16
2023-06-23T20:31:53.341Z,60.67
2023-06-23T20:34:21.661Z,60.86
2023-06-23T20:36:49.654Z,61.12
2023-06-23T20:39:19.787Z,61.39
2023-06-23T20:41:47.603Z,61.81
2023-06-23T20:44:15.376Z,61.98
2023-06-23T20:46:43.844Z,61.99
2023-06-23T20:49:11.651Z,62.13
2023-06-23T20:51:39.392Z,62.41
2023-06-23T20:54:07.162Z,62.62
2023-06-23T20:56:34.916Z,62.85
2023-06-23T20:59:03.210Z,63.01
2023-06-23T21:01:31.083Z,63.13
2023-06-23T21:03:59.304Z,63.28
2023-06-23T21:06:27.110Z,63.48
2023-06-23T21:08:55.101Z,63.86
2023-06-23T21:11:23.146Z,64.15
2023-06-23T21:13:50.979Z,64.38
2023-06-23T21:16:20.031Z,64.55
2023-06-23T21:18:48.528Z,64.82
2023-06-23T21:21:16.326Z,65.01
2023-06-23T21:23:44.727Z,65.29
2023-06-23T21:26:14.080Z,65.49
2023-06-23T21:28:42.547Z,65.67
2023-06-23T21:31:10.618Z,65.97
2023-06-23T21:33:38.500Z,66.06
2023-06-23T21:36:06.383Z,66.47
2023-06-23T21:38:34.247Z,66.63
2023-06-23T21:41:02.137Z,67.05
2023-06-23T21:43:30.455Z,67.21
2023-06-23T21:45:58.596Z,67.52
2023-06-23T21:48:26.343Z,67.41
2023-06-23T21:50:54.158Z,67.73
2023-06-23T21:53:22.007Z,67.69
2023-06-23T21:55:49.741Z,67.90
2023-06-23T21:58:17.477Z,67.99
2023-06-23T22:00:45.260Z,68.27
2023-06-23T22:03:13.185Z,68.46
2023-06-23T22:05:41.124Z,68.33
2023-06-23T22:08:08.988Z,68.64
2023-06-23T22:10:37.145Z,69.04
2023-06-23T22:13:05.266Z,69.05
2023-06-23T22:15:33.287Z,69.30
2023-06-23T22:18:01.298Z,69.28
2023-06-23T22:20:29.127Z,69.45
2023-06-23T22:22:56.938Z,69.62
2023-06-23T22:25:24.716Z,69.80
2023-06-23T22:27:52.652Z,69.93
2023-06-23T22:30:20.446Z,69.99
2023-06-23T22:32:48.414Z,70.18
2023-06-23T22:35:16.309Z,70.46
2023-06-23T22:37:44.034Z,70.58
2023-06-23T22:40:13.041Z,70.62
2023-06-23T22:42:40.906Z,70.78
2023-06-23T22:45:09.181Z,70.90
2023-06-23T22:47:36.976Z,71.16
2023-06-23T22:50:07.745Z,71.11
2023-06-23T22:52:40.208Z,71.14
2023-06-23T22:55:10.980Z,71.37
2023-06-23T22:57:38.824Z,71.46
2023-06-23T23:00:10.534Z,71.61
2023-06-23T23:02:39.261Z,71.73
2023-06-23T23:05:08.400Z,71.92
2023-06-23T23:07:36.465Z,71.99
2023-06-23T23:10:04.842Z,72.14
2023-06-23T23:12:32.749Z,72.15
2023-06-23T23:15:00.481Z,72.13
2023-06-23T23:17:28.254Z,72.13
2023-06-23T23:19:57.292Z,72.41
2023-06-23T23:22:25.385Z,72.66
2023-06-23T23:24:53.837Z,72.60
2023-06-23T23:27:22.322Z,72.68
2023-06-23T23:29:54.998Z,72.58
2023-06-23T23:32:24.470Z,72.72
2023-06-23T23:34:53.123Z,72.72
2023-06-23T23:37:20.928Z,72.74
2023-06-23T23:39:48.800Z,72.99
2023-06-23T23:42:16.547Z,73.02
2023-06-23T23:44:44.386Z,72.93
2023-06-23T23:47:12.407Z,73.08
2023-06-23T23:49:40.282Z,73.17
2023-06-23T23:52:08.547Z,73.43
2023-06-23T23:54:36.360Z,73.47
2023-06-23T23:57:04.791Z,73.51
2023-06-23T23:59:32.839Z,73.54
